Tiempo atmosférico en la estación meteorológica de Córdoba, Prágdena, Córdoba (275 m.)



Fecha
DESCASC
Temp. máxima en grados centígrados (hora)
DESCASC
Temp. mínima en grados centígrados (hora)
DESCASC
Temp. media en grados centígrados
DESCASC
Racha de viento máxima en m/sg (hora)
DESCASC
Velocidad máxima media en intervalos de 10 minutos(hora)
DESCASC
Precipitaciones diarias en mm
DESCASC
Precipitaciones de 00:00 a 06:00 en mm
DESCASC
Precipitaciones de 06:00 a 12:00 en mm
DESCASC
Precipitaciones de 12:00 a 18:00 en mm
DESCASC
Precipitaciones de 18:00 a 24:00 en mm
DESCASC
31-05-2020 30.3 (14:10) 15.6 (23:50) 22.9 13.89 (16:10) 7.78 (16:10) 2.2 0 0 1.4 0.8
30-05-2020 33.7 (16:40) 16.2 (06:30) 25 8.33 (20:20) 5.56 (20:40) 0 0 0 0 0
29-05-2020 34.7 (17:50) 16 (06:40) 25.4 5.83 (23:59) 3.06 (00:50) 0 0 0 0 0
28-05-2020 33.3 (18:20) 15.7 (00:00) 24.5 6.39 (21:10) 3.61 (21:20) 0 0 0 0 0
27-05-2020 33.6 (18:50) 16 (00:00) 24.8 7.22 (14:50) 4.44 (20:30) 0 0 0 0 0
26-05-2020 34.5 (18:50) 15.7 (00:00) 25.1 7.78 (20:10) 4.72 (19:30) 0 0 0 0 0
25-05-2020 34.7 (17:20) 16 (00:00) 25.4 7.78 (19:50) 4.17 (20:50) 0 0 0 0 0
24-05-2020 35.2 (16:00) 18.9 (00:00) 27.1 8.33 (18:40) 5.28 (19:30) 0 0 0 0 0
23-05-2020 36.4 (19:00) 18.6 (00:00) 27.5 4.72 (14:40) 2.78 (14:30) 0 0 0 0 0
22-05-2020 35.6 (18:40) 18.7 (00:00) 27.1 6.94 (22:10) 4.17 (17:10) 0 0 0 0 0
21-05-2020 34.5 (17:30) 17.1 (00:00) 25.8 8.33 (16:00) 3.89 (18:10) 0 0 0 0 0
20-05-2020 33.5 (17:00) 16.2 (00:00) 24.9 6.39 (18:20) 3.33 (18:30) 0 0 0 0 0
19-05-2020 32.4 (19:50) 14.4 (00:00) 23.4 5.83 (15:50) 2.78 (16:30) 0 0 0 0 0
18-05-2020 -- (--) -- (--) -- -- (--) -- (--) 0 0 0 0 0
17-05-2020 -- (--) -- (--) -- 7.5 (17:50) 3.89 (18:10) 0.2 0.2 0 0 0
16-05-2020 -- (--) -- (--) -- 8.89 (20:00) 5.56 (20:00) 0.6 0 0 0 0.6
15-05-2020 -- (--) -- (--) -- 10.83 (14:20) 6.11 (15:30) 0 0 0 0 0
14-05-2020 -- (--) -- (--) -- 12.5 (18:50) 7.78 (18:50) 5.8 0 0 0 5.8
13-05-2020 -- (--) -- (--) -- 15 (21:10) 8.89 (21:10) 0 0 0 0 0
12-05-2020 -- (--) -- (--) -- 10.28 (19:00) 6.39 (11:40) 4.8 0 4.4 0.4 0
11-05-2020 -- (--) -- (--) -- 14.44 (12:40) 9.17 (12:40) 0.6 0 0 0.6 0
10-05-2020 -- (--) -- (--) -- 15.28 (18:40) 7.78 (18:40) 7.4 3 0.4 0 4
09-05-2020 -- (--) -- (--) -- 11.67 (19:30) 8.33 (21:00) 0.6 0 0 0 0.6
08-05-2020 -- (--) -- (--) -- 11.67 (18:30) 8.33 (19:40) 0 0 0 0 0
07-05-2020 -- (--) -- (--) -- 7.22 (17:10) 4.72 (18:50) 0 0 0 0 0
06-05-2020 -- (--) -- (--) -- 6.39 (13:40) 2.78 (23:59) 0 0 0 0 0
05-05-2020 -- (--) -- (--) -- 6.94 (17:40) 4.72 (17:50) 0 0 0 0 0

Gráficas

Temp. máximas Temp. mínimas Temp. medias Precipitaciones Rachas de viento máximas Velocidades máximas media en intervalos de 10 minutos

Datos horarios

Fecha y hora oficial Temperatura (ºC) Velocidad del viento (km/h) Dirección del viento Racha (km/h) Dirección de racha Precipitación (mm) Presión (hPa) Tendencia (hPa) Humedad (%)
2020-06-03 23:00:00 22.2 19 Sudoeste 39 Sur 0 -- -- 52
2020-06-03 22:00:00 24 22 Sudoeste 41 Sudoeste 0 -- -- 46
2020-06-03 21:00:00 26.6 21 Sudoeste 35 Sudoeste 0 -- -- 46
2020-06-03 20:00:00 28.5 20 Sudoeste 37 Oeste 0 -- -- 36
2020-06-03 19:00:00 28.9 26 Oeste 40 Oeste 0 -- -- 35
2020-06-03 18:00:00 29.2 22 Oeste 38 Oeste 0 -- -- 34
2020-06-03 17:00:00 29.6 18 Sudoeste 33 Sudoeste 0 -- -- 35
2020-06-03 16:00:00 28.6 19 Sudoeste 35 Sudoeste 0 -- -- 37
2020-06-03 15:00:00 27.6 14 Sudoeste 32 Sudoeste 0 -- -- 43
2020-06-03 14:00:00 26.8 13 Sudoeste 24 Sudoeste 0 -- -- 44
2020-06-03 13:00:00 25.6 10 Sudoeste 21 Sudoeste 0 -- -- 51
2020-06-03 12:00:00 23 13 Sudoeste 20 Oeste 0 -- -- 58
2020-06-03 11:00:00 20.7 12 Oeste 19 Oeste 0 -- -- 67
2020-06-03 10:00:00 19.7 6 Sudoeste 19 Sudoeste 0 -- -- 74
2020-06-03 09:00:00 18 9 Sudoeste 19 Oeste 0 -- -- 81
2020-06-03 08:00:00 16.4 4 Sudoeste 8 Sur 0 -- -- 82
2020-06-03 07:00:00 16.4 6 Sur 8 Sur 0 -- -- 82
2020-06-03 06:00:00 16.3 4 Sudoeste 14 Sudoeste 0 -- -- 82
2020-06-03 05:00:00 16.8 11 Sur 16 Sur 0 -- -- 79
2020-06-03 04:00:00 17.6 8 Sudoeste 17 Sur 0 -- -- 74
2020-06-03 03:00:00 18.6 11 Sur 15 Sur 0 -- -- 69
2020-06-03 02:00:00 19.2 11 Sudoeste 17 Sur 0 -- -- 66
2020-06-03 01:00:00 20.3 10 Sur 12 Sudoeste 0 -- -- 64
2020-06-03 00:00:00 22.1 6 Sudoeste 18 Sudoeste 0 -- -- 58
2020-06-02 23:00:00 22.8 7 Oeste 15 Sudoeste 0 -- -- 55
2020-06-02 22:00:00 24.1 12 Oeste 22 Oeste 0 -- -- 50
2020-06-02 21:00:00 26.2 17 Oeste 31 Oeste 0 -- -- 45
2020-06-02 20:00:00 28.3 17 Sudoeste 33 Oeste 0 -- -- 39
2020-06-02 19:00:00 28.9 18 Sudoeste 31 Sudoeste 0 -- -- 33
2020-06-02 18:00:00 29.5 16 Sudoeste 26 Sudoeste 0 -- -- 33
2020-06-02 17:00:00 29 15 Sudoeste 29 Sudoeste 0 -- -- 31
2020-06-02 16:00:00 29.6 14 Sudoeste 32 Sudoeste 0 -- -- 29
2020-06-02 15:00:00 28.2 14 Oeste 25 Oeste 0 -- -- 30
2020-06-02 14:00:00 27.4 11 Oeste 18 Oeste 0 -- -- 35
2020-06-02 13:00:00 26.8 7 Sudoeste 15 Sudoeste 0 -- -- 37
2020-06-02 12:00:00 25.2 5 Sudoeste 14 Sudoeste 0 -- -- 48
2020-06-02 11:00:00 24.1 2 Norte 8 Norte 0 -- -- 53
2020-06-02 10:00:00 22.1 4 Noroeste 9 Norte 0 -- -- 62
2020-06-02 09:00:00 18.7 3 Oeste 5 Sudoeste 0 -- -- 73
2020-06-02 08:00:00 16.9 3 Este 10 Este 0 -- -- 80
2020-06-02 07:00:00 15.9 9 Este 14 Nordeste 0 -- -- 84
2020-06-02 06:00:00 16.4 8 Nordeste 10 Nordeste 0 -- -- 83
2020-06-02 05:00:00 16.7 2 Nordeste 6 Sur 0 -- -- 83
2020-06-02 04:00:00 17.8 6 Sur 11 Sur 0 -- -- 80
2020-06-02 03:00:00 18.4 8 Sudoeste 13 Sudoeste 0 -- -- 77
2020-06-02 02:00:00 19.4 9 Sudoeste 17 Sur 0 -- -- 74
2020-06-02 01:00:00 20.5 9 Sur 12 Sudoeste 0 -- -- 70
2020-06-02 00:00:00 21.6 6 Sudoeste 14 Sudoeste 0 -- -- 65
2020-06-01 23:00:00 22.9 10 Sudoeste 22 Sudoeste 0 -- -- 55
2020-06-01 22:00:00 23.7 3 Oeste 9 Oeste 0 -- -- 50
2020-06-01 21:00:00 26.7 5 Noroeste 20 Oeste 0 -- -- 43
2020-06-01 20:00:00 28.8 10 Sudoeste 19 Oeste 0 -- -- 37
2020-06-01 19:00:00 29 11 Sudoeste 23 Oeste 0 -- -- 36
2020-06-01 18:00:00 28.7 12 Sudoeste 27 Sudoeste 0 -- -- 37
2020-06-01 17:00:00 28.6 10 Oeste 24 Oeste 0 -- -- 38
2020-06-01 16:00:00 28.1 13 Oeste 25 Oeste 0 -- -- 38
2020-06-01 15:00:00 27 9 Oeste 20 Sudoeste 0 -- -- 41
2020-06-01 14:00:00 26.1 9 Oeste 18 Sur 0 -- -- 42
2020-06-01 13:00:00 25.4 8 Sudoeste 17 Sudoeste 0 -- -- 43
2020-06-01 12:00:00 24.2 8 Oeste 15 Oeste 0 -- -- 49
2020-06-01 11:00:00 22.5 5 Noroeste 12 Oeste 0 -- -- 60
2020-06-01 10:00:00 20.3 2 Norte 5 Norte 0 -- -- 71
2020-06-01 09:00:00 16.5 3 Nordeste 6 Este 0 -- -- 84
2020-06-01 08:00:00 13.7 2 Norte 8 Nordeste 0 -- -- 94
2020-06-01 07:00:00 13.5 6 Norte 9 Nordeste 0 -- -- 96
2020-06-01 06:00:00 13.4 4 Norte 13 Norte 0 -- -- 96
2020-06-01 05:00:00 13.9 5 Norte 10 Norte 0 -- -- 96
2020-06-01 04:00:00 14 8 Norte 12 Este 0 -- -- 94
2020-06-01 03:00:00 15.1 7 Este 13 Este 0 -- -- 91
2020-06-01 02:00:00 14.7 6 Nordeste 11 Norte 0 -- -- 94
2020-06-01 01:00:00 15.6 0 Calma 14 Este 0 -- -- 91
2020-06-01 00:00:00 15.6 9 Este 13 Este 0 -- -- 91
2020-05-31 23:00:00 16.8 0 Calma 4 Sur 0 -- -- 91
2020-05-31 22:00:00 17.5 2 Sudoeste 6 Sudoeste 0 -- -- 89
2020-05-31 21:00:00 18.5 0 Calma 14 Oeste 0 -- -- 80
2020-05-31 20:00:00 18.3 8 Noroeste 24 Oeste 0 -- -- 84
2020-05-31 19:00:00 19.4 3 Noroeste 23 Este 0.8 -- -- 72
2020-05-31 18:00:00 18.3 4 Sur 31 Sur 1 -- -- 80
2020-05-31 17:00:00 19.3 21 Sudoeste 50 Sudoeste 0.4 -- -- 70
2020-05-31 16:00:00 26.1 27 Sudoeste 47 Sudoeste 0 -- -- 31
2020-05-31 15:00:00 28.7 19 Sudoeste 30 Sudoeste 0 -- -- 27
2020-05-31 14:00:00 30.2 5 Nordeste 13 Noroeste 0 -- -- 27
2020-05-31 13:00:00 28.7 4 Norte 12 Noroeste 0 -- -- 28
2020-05-31 12:00:00 27.7 6 Oeste 11 Oeste 0 -- -- 31
2020-05-31 11:00:00 26.1 3 Noroeste 13 Norte 0 -- -- 32
2020-05-31 10:00:00 22.1 2 Sudoeste 9 Sudoeste 0 -- -- 43
2020-05-31 09:00:00 19.5 0 Calma 4 Sudoeste 0 -- -- 49
2020-05-31 08:00:00 16.5 0 Calma 8 Nordeste 0 -- -- 58
2020-05-31 07:00:00 16.5 3 Este 4 Este 0 -- -- 56
2020-05-31 06:00:00 16.7 3 Sudeste 4 Sudeste 0 -- -- 55
2020-05-31 05:00:00 17.7 0 Calma 5 Este 0 -- -- 53
2020-05-31 04:00:00 17.9 0 Calma 4 Sudoeste 0 -- -- 53
2020-05-31 03:00:00 19.4 3 Oeste 8 Oeste 0 -- -- 49
2020-05-31 02:00:00 20.1 6 Oeste 9 Oeste 0 -- -- 47
2020-05-31 01:00:00 21.1 5 Oeste 11 Oeste 0 -- -- 46
2020-05-31 00:00:00 23.2 4 Sudoeste 14 Oeste 0 -- -- 41
2020-05-30 23:00:00 24.6 10 Oeste 19 Sudoeste 0 -- -- 37
2020-05-30 22:00:00 26.3 12 Sudoeste 23 Sudoeste 0 -- -- 33
2020-05-30 21:00:00 28.6 15 Sudoeste 30 Sudoeste 0 -- -- 31
2020-05-30 20:00:00 31.8 18 Sudoeste 30 Sudoeste 0 -- -- 28
2020-05-30 19:00:00 33.2 3 Norte 21 Oeste 0 -- -- 25
2020-05-30 18:00:00 33.3 12 Sudoeste 19 Sudoeste 0 -- -- 24
2020-05-30 17:00:00 33.1 9 Noroeste 17 Nordeste 0 -- -- 25
2020-05-30 16:00:00 33 7 Norte 18 Sudoeste 0 -- -- 27
2020-05-30 15:00:00 32.5 4 Sudoeste 12 Norte 0 -- -- 28
2020-05-30 14:00:00 30.7 8 Este 15 Este 0 -- -- 31
2020-05-30 13:00:00 29.4 5 Sudeste 18 Sudoeste 0 -- -- 33
2020-05-30 12:00:00 27.6 7 Nordeste 21 Este 0 -- -- 35
2020-05-30 11:00:00 25.2 9 Nordeste 15 Nordeste 0 -- -- 39
2020-05-30 10:00:00 23.2 5 Norte 11 Noroeste 0 -- -- 43
2020-05-30 09:00:00 21.2 3 Nordeste 8 Este 0 -- -- 45
2020-05-30 08:00:00 17.5 4 Este 7 Nordeste 0 -- -- 51
2020-05-30 07:00:00 16.5 4 Norte 9 Este 0 -- -- 52
2020-05-30 06:00:00 17.5 4 Nordeste 9 Noroeste 0 -- -- 50
2020-05-30 05:00:00 18.8 3 Oeste 12 Sudoeste 0 -- -- 46
2020-05-30 04:00:00 19.9 10 Sudoeste 17 Sudoeste 0 -- -- 46
2020-05-30 03:00:00 20.8 6 Sur 20 Sur 0 -- -- 46
2020-05-30 02:00:00 21.9 11 Sudoeste 21 Sudoeste 0 -- -- 44
2020-05-30 01:00:00 22.8 6 Sudoeste 24 Sudoeste 0 -- -- 43
2020-05-30 00:00:00 24.4 11 Sudoeste 21 Sudoeste 0 -- -- 39
2020-05-29 23:00:00 25.8 7 Sudoeste 15 Sur 0 -- -- 36
2020-05-29 22:00:00 28.8 4 Sudoeste 7 Sudoeste 0 -- -- 31
2020-05-29 21:00:00 31.1 5 Oeste 7 Oeste 0 -- -- 27
2020-05-29 20:00:00 33.3 2 Sur 9 Sudeste 0 -- -- 22
2020-05-29 19:00:00 33.9 5 Nordeste 13 Sudoeste 0 -- -- 21
2020-05-29 18:00:00 33.7 9 Noroeste 18 Noroeste 0 -- -- 23
2020-05-29 17:00:00 32.6 9 Este 18 Nordeste 0 -- -- 25
2020-05-29 16:00:00 32.5 8 Norte 17 Norte 0 -- -- 25
2020-05-29 15:00:00 31.2 11 Este 18 Este 0 -- -- 28
2020-05-29 14:00:00 30 6 Nordeste 18 Nordeste 0 -- -- 31
2020-05-29 13:00:00 28.9 9 Norte 17 Norte 0 -- -- 33
2020-05-29 12:00:00 27.4 8 Nordeste 19 Nordeste 0 -- -- 34
2020-05-29 11:00:00 25.5 6 Nordeste 16 Este 0 -- -- 39
2020-05-29 10:00:00 23.3 4 Nordeste 10 Norte 0 -- -- 48
2020-05-29 09:00:00 20.2 4 Norte 8 Norte 0 -- -- 63
2020-05-29 08:00:00 17.7 3 Nordeste 9 Este 0 -- -- 68
2020-05-29 07:00:00 16 7 Nordeste 13 Este 0 -- -- 73
2020-05-29 06:00:00 16.2 7 Este 9 Nordeste 0 -- -- 74
2020-05-29 05:00:00 17.4 4 Nordeste 6 Este 0 -- -- 69
2020-05-29 04:00:00 17.6 4 Nordeste 6 Este 0 -- -- 66
2020-05-29 03:00:00 18.8 0 Calma 13 Oeste 0 -- -- 62
2020-05-29 02:00:00 19.8 0 Calma 14 Oeste 0 -- -- 59
2020-05-29 01:00:00 20.5 10 Oeste 16 Oeste 0 -- -- 57
2020-05-29 00:00:00 21.9 5 Sudoeste 17 Sudoeste 0 -- -- 52
2020-05-28 23:00:00 23.3 9 Sudoeste 21 Sudoeste 0 -- -- 48
2020-05-28 22:00:00 25.8 11 Sudoeste 23 Sudoeste 0 -- -- 42
2020-05-28 21:00:00 29.4 10 Sudoeste 19 Sudoeste 0 -- -- 35
2020-05-28 20:00:00 33.1 4 Noroeste 14 Noroeste 0 -- -- 25
2020-05-28 19:00:00 33 6 Norte 14 Noroeste 0 -- -- 24
2020-05-28 18:00:00 33.2 7 Noroeste 16 Norte 0 -- -- 23
2020-05-28 17:00:00 31.9 6 Oeste 18 Oeste 0 -- -- 25
2020-05-28 16:00:00 32 7 Noroeste 14 Oeste 0 -- -- 26
2020-05-28 15:00:00 31 5 Nordeste 18 Sudeste 0 -- -- 26
2020-05-28 14:00:00 29.1 12 Oeste 19 Oeste 0 -- -- 28
2020-05-28 13:00:00 28.6 6 Norte 17 Norte 0 -- -- 30
2020-05-28 12:00:00 27.2 4 Nordeste 15 Este 0 -- -- 33
2020-05-28 11:00:00 25.2 9 Este 15 Este 0 -- -- 39
2020-05-28 10:00:00 22.8 4 Este 10 Sudeste 0 -- -- 50
2020-05-28 09:00:00 20.1 2 Norte 5 Norte 0 -- -- 60
2020-05-28 08:00:00 16.7 0 Calma 4 Norte 0 -- -- 70
2020-05-28 07:00:00 15.7 0 Calma 3 Sudeste 0 -- -- 72
2020-05-28 06:00:00 16.7 0 Calma 3 Norte 0 -- -- 70
2020-05-28 05:00:00 16.8 0 Calma 3 Sudeste 0 -- -- 68
2020-05-28 04:00:00 17.8 3 Sudeste 4 Este 0 -- -- 65
2020-05-28 03:00:00 18.7 0 Calma 6 Oeste 0 -- -- 62
2020-05-28 02:00:00 19.1 2 Noroeste 9 Oeste 0 -- -- 61
2020-05-28 01:00:00 20.4 3 Noroeste 15 Oeste 0 -- -- 57
2020-05-28 00:00:00 21.6 11 Oeste 18 Sudoeste 0 -- -- 52
2020-05-27 23:00:00 23.4 11 Sudoeste 21 Sudoeste 0 -- -- 47
2020-05-27 22:00:00 24.9 13 Sudoeste 21 Sudoeste 0 -- -- 44
2020-05-27 21:00:00 27.8 10 Sudoeste 25 Sur 0 -- -- 38
2020-05-27 20:00:00 30.5 15 Sudoeste 26 Sudoeste 0 -- -- 33
2020-05-27 19:00:00 32.9 12 Este 21 Este 0 -- -- 27
2020-05-27 18:00:00 32.8 6 Norte 18 Nordeste 0 -- -- 27
2020-05-27 17:00:00 32.7 7 Norte 19 Nordeste 0 -- -- 26
2020-05-27 16:00:00 31.8 8 Oeste 17 Oeste 0 -- -- 29
2020-05-27 15:00:00 30.7 9 Nordeste 26 Noroeste 0 -- -- 30
2020-05-27 14:00:00 30.2 5 Noroeste 17 Norte 0 -- -- 31
2020-05-27 13:00:00 29 7 Nordeste 15 Noroeste 0 -- -- 32
2020-05-27 12:00:00 27.7 5 Nordeste 13 Nordeste 0 -- -- 36
2020-05-27 11:00:00 26.2 6 Este 14 Este 0 -- -- 37
2020-05-27 10:00:00 23.1 9 Este 14 Este 0 -- -- 49
2020-05-27 09:00:00 19.7 5 Norte 9 Norte 0 -- -- 64
2020-05-27 08:00:00 16.8 3 Nordeste 5 Este 0 -- -- 73
2020-05-27 07:00:00 16.3 0 Calma 3 Este 0 -- -- 73
2020-05-27 06:00:00 16.8 3 Este 9 Este 0 -- -- 71
2020-05-27 05:00:00 17.7 3 Nordeste 7 Nordeste 0 -- -- 66
2020-05-27 04:00:00 18.7 4 Nordeste 7 Norte 0 -- -- 62
2020-05-27 03:00:00 19.7 0 Calma 6 Norte 0 -- -- 60
2020-05-27 02:00:00 20.3 0 Calma 9 Oeste 0 -- -- 57
2020-05-27 01:00:00 21.3 6 Oeste 13 Sudoeste 0 -- -- 54
2020-05-27 00:00:00 21.9 9 Sudoeste 17 Sudoeste 0 -- -- 51
2020-05-26 23:00:00 23.1 12 Sudoeste 22 Sudoeste 0 -- -- 48
2020-05-26 22:00:00 24.4 13 Sudoeste 23 Sudoeste 0 -- -- 45
2020-05-26 21:00:00 27.4 14 Sudoeste 28 Sudoeste 0 -- -- 38
2020-05-26 20:00:00 31 16 Sudoeste 26 Sudoeste 0 -- -- 31
2020-05-26 19:00:00 34.3 3 Nordeste 15 Sudoeste 0 -- -- 20
2020-05-26 18:00:00 33.1 10 Nordeste 20 Este 0 -- -- 21
2020-05-26 17:00:00 33.4 8 Este 19 Este 0 -- -- 20
2020-05-26 16:00:00 32.5 9 Nordeste 23 Nordeste 0 -- -- 21
2020-05-26 15:00:00 32.1 9 Nordeste 23 Nordeste 0 -- -- 22
2020-05-26 14:00:00 31.3 7 Nordeste 21 Nordeste 0 -- -- 25
2020-05-26 13:00:00 29.4 7 Este 15 Noroeste 0 -- -- 31
2020-05-26 12:00:00 27.2 5 Norte 13 Nordeste 0 -- -- 40
2020-05-26 11:00:00 25.1 4 Norte 9 Noroeste 0 -- -- 47
2020-05-26 10:00:00 22.3 4 Oeste 10 Oeste 0 -- -- 52
2020-05-26 09:00:00 20.1 0 Calma 4 Este 0 -- -- 57
2020-05-26 08:00:00 16.7 3 Norte 6 Norte 0 -- -- 71
2020-05-26 07:00:00 15.9 3 Nordeste 5 Nordeste 0 -- -- 72
2020-05-26 06:00:00 17 0 Calma 5 Norte 0 -- -- 70
2020-05-26 05:00:00 16.9 4 Norte 7 Nordeste 0 -- -- 70
2020-05-26 04:00:00 17.7 2 Norte 4 Sudoeste 0 -- -- 68
2020-05-26 03:00:00 18.9 2 Oeste 6 Nordeste 0 -- -- 65
2020-05-26 02:00:00 19.7 3 Oeste 11 Oeste 0 -- -- 63
2020-05-26 01:00:00 20.8 4 Sudoeste 20 Oeste 0 -- -- 60
2020-05-26 00:00:00 22.1 7 Oeste 26 Sudoeste 0 -- -- 58
2020-05-25 23:00:00 23.6 13 Sudoeste 22 Sudoeste 0 -- -- 53
2020-05-25 22:00:00 25.5 10 Sudoeste 23 Sudoeste 0 -- -- 45
2020-05-25 21:00:00 27.6 15 Sudoeste 27 Sudoeste 0 -- -- 39
2020-05-25 20:00:00 30.5 14 Sudoeste 28 Sudoeste 0 -- -- 31
2020-05-25 19:00:00 33.8 9 Sudoeste 21 Sur 0 -- -- 23
2020-05-25 18:00:00 34.4 6 Sudoeste 19 Oeste 0 -- -- 24
2020-05-25 17:00:00 33.9 8 Oeste 20 Oeste 0 -- -- 26
2020-05-25 16:00:00 33.4 5 Oeste 15 Oeste 0 -- -- 27
2020-05-25 15:00:00 32.1 5 Norte 16 Oeste 0 -- -- 28
2020-05-25 14:00:00 31 5 Noroeste 15 Norte 0 -- -- 30
2020-05-25 13:00:00 29.4 4 Noroeste 13 Norte 0 -- -- 34
2020-05-25 12:00:00 27.9 4 Noroeste 11 Sudeste 0 -- -- 37
2020-05-25 11:00:00 25.3 3 Oeste 8 Sudoeste 0 -- -- 41
2020-05-25 10:00:00 23.2 4 Este 8 Este 0 -- -- 46
2020-05-25 09:00:00 20.8 0 Calma 5 Norte 0 -- -- 52
2020-05-25 08:00:00 16.8 5 Norte 8 Norte 0 -- -- 64
2020-05-25 07:00:00 17.2 2 Sur 5 Sur 0 -- -- 60
2020-05-25 06:00:00 17.3 3 Sur 6 Sudeste 0 -- -- 59
2020-05-25 05:00:00 17.3 3 Sudeste 6 Sudeste 0 -- -- 57
2020-05-25 04:00:00 18.4 3 Este 9 Oeste 0 -- -- 54
2020-05-25 03:00:00 19.6 3 Oeste 6 Oeste 0 -- -- 50
2020-05-25 02:00:00 20.8 3 Oeste 9 Sudoeste 0 -- -- 46
2020-05-25 01:00:00 21.6 5 Oeste 16 Oeste 0 -- -- 44
2020-05-25 00:00:00 22.8 6 Sudoeste 18 Sudoeste 0 -- -- 42
2020-05-24 23:00:00 24.1 11 Sudoeste 19 Sudoeste 0 -- -- 40
2020-05-24 22:00:00 26 12 Sudoeste 23 Sudoeste 0 -- -- 35
2020-05-24 21:00:00 29.8 12 Sudoeste 24 Sudoeste 0 -- -- 28
2020-05-24 20:00:00 33 12 Sudoeste 29 Sudoeste 0 -- -- 25
2020-05-24 19:00:00 34.1 15 Sudoeste 30 Sudoeste 0 -- -- 24
2020-05-24 18:00:00 33.9 13 Oeste 28 Oeste 0 -- -- 26
2020-05-24 17:00:00 34.5 8 Oeste 23 Oeste 0 -- -- 25
2020-05-24 16:00:00 35.2 6 Sur 22 Sudoeste 0 -- -- 24
2020-05-24 15:00:00 34.2 6 Oeste 20 Oeste 0 -- -- 26
2020-05-24 14:00:00 32.8 6 Sudoeste 13 Sur 0 -- -- 30
2020-05-24 13:00:00 32 4 Norte 12 Noroeste 0 -- -- 31
2020-05-24 12:00:00 29.6 5 Norte 11 Noroeste 0 -- -- 34
2020-05-24 11:00:00 27.9 6 Noroeste 11 Noroeste 0 -- -- 35
2020-05-24 10:00:00 25.8 5 Norte 10 Norte 0 -- -- 37
2020-05-24 09:00:00 23 0 Calma 6 Este 0 -- -- 49
2020-05-24 08:00:00 19.8 4 Este 6 Este 0 -- -- 53
2020-05-24 07:00:00 19.2 2 Este 5 Norte 0 -- -- 52
2020-05-24 06:00:00 20.1 5 Norte 7 Norte 0 -- -- 48
2020-05-24 05:00:00 22 5 Sudoeste 10 Sur 0 -- -- 43
2020-05-24 04:00:00 22.1 5 Oeste 7 Oeste 0 -- -- 43
2020-05-24 03:00:00 23.3 5 Sudoeste 9 Sudoeste 0 -- -- 41
2020-05-24 02:00:00 24.5 6 Sudoeste 12 Sudoeste 0 -- -- 38
2020-05-24 01:00:00 25.2 8 Sudoeste 16 Oeste 0 -- -- 38
2020-05-24 00:00:00 25.6 8 Sudoeste 13 Sudoeste 0 -- -- 39
2020-05-23 23:00:00 26.8 4 Sur 6 Sudoeste 0 -- -- 40
2020-05-23 22:00:00 29.1 0 Calma 5 Oeste 0 -- -- 37
2020-05-23 21:00:00 32.3 2 Oeste 6 Oeste 0 -- -- 34
2020-05-23 20:00:00 35 5 Oeste 11 Noroeste 0 -- -- 23
2020-05-23 19:00:00 36.4 3 Noroeste 16 Noroeste 0 -- -- 21
2020-05-23 18:00:00 36.2 6 Norte 15 Oeste 0 -- -- 23
2020-05-23 17:00:00 36.2 7 Noroeste 17 Noroeste 0 -- -- 24
2020-05-23 16:00:00 34.6 7 Nordeste 17 Oeste 0 -- -- 26
2020-05-23 15:00:00 33.9 7 Noroeste 17 Oeste 0 -- -- 27
2020-05-23 14:00:00 33.3 6 Noroeste 14 Oeste 0 -- -- 28
2020-05-23 13:00:00 32.1 4 Norte 14 Oeste 0 -- -- 31
2020-05-23 12:00:00 30.1 5 Noroeste 12 Oeste 0 -- -- 35
2020-05-23 11:00:00 28.4 4 Noroeste 9 Norte 0 -- -- 38
2020-05-23 10:00:00 24.4 4 Norte 10 Norte 0 -- -- 49
2020-05-23 09:00:00 22.4 5 Norte 8 Norte 0 -- -- 52
2020-05-23 08:00:00 20 3 Norte 5 Noroeste 0 -- -- 54
2020-05-23 07:00:00 18.6 0 Calma 4 Este 0 -- -- 57
2020-05-23 06:00:00 20.3 0 Calma 6 Este 0 -- -- 51
2020-05-23 05:00:00 21.1 6 Nordeste 9 Nordeste 0 -- -- 45
2020-05-23 04:00:00 20.5 3 Sudoeste 8 Oeste 0 -- -- 48
2020-05-23 03:00:00 22.7 5 Oeste 12 Sur 0 -- -- 42
2020-05-23 02:00:00 24.6 10 Sur 13 Sudoeste 0 -- -- 36
2020-05-23 01:00:00 25.4 9 Sudoeste 15 Sur 0 -- -- 36
2020-05-23 00:00:00 26.1 9 Sudoeste 13 Sur 0 -- -- 35
2020-05-22 23:00:00 27.3 6 Sur 25 Sudoeste 0 -- -- 31
2020-05-22 22:00:00 29.1 12 Sudoeste 23 Sudoeste 0 -- -- 28
2020-05-22 21:00:00 32 8 Sudoeste 18 Sudoeste 0 -- -- 24
2020-05-22 20:00:00 34.6 9 Sudoeste 17 Sudoeste 0 -- -- 25
2020-05-22 19:00:00 34.9 8 Oeste 15 Oeste 0 -- -- 25
2020-05-22 18:00:00 35.2 7 Sudoeste 24 Oeste 0 -- -- 25
2020-05-22 17:00:00 35.3 7 Sudoeste 19 Sudoeste 0 -- -- 25
2020-05-22 16:00:00 34.9 5 Este 18 Norte 0 -- -- 28
2020-05-22 15:00:00 33.8 8 Noroeste 17 Norte 0 -- -- 28
2020-05-22 14:00:00 33.5 6 Norte 15 Nordeste 0 -- -- 33
2020-05-22 13:00:00 31.7 4 Noroeste 13 Noroeste 0 -- -- 38
2020-05-22 12:00:00 29.4 6 Este 15 Nordeste 0 -- -- 42
2020-05-22 11:00:00 27.4 6 Este 14 Nordeste 0 -- -- 46
2020-05-22 10:00:00 24.7 11 Nordeste 15 Este 0 -- -- 53
2020-05-22 09:00:00 21.7 6 Norte 9 Norte 0 -- -- 65
2020-05-22 08:00:00 19 6 Norte 9 Norte 0 -- -- 73
2020-05-22 07:00:00 19.2 6 Nordeste 8 Nordeste 0 -- -- 71
2020-05-22 06:00:00 19.3 3 Nordeste 6 Norte 0 -- -- 72
2020-05-22 05:00:00 20.2 0 Calma 3 Sudoeste 0 -- -- 68
2020-05-22 04:00:00 20.9 2 Sur 8 Sudoeste 0 -- -- 67
2020-05-22 03:00:00 21.8 4 Sudoeste 14 Sudoeste 0 -- -- 64
2020-05-22 02:00:00 22.7 9 Sudoeste 14 Sudoeste 0 -- -- 63
2020-05-22 01:00:00 23.2 10 Sur 13 Sur 0 -- -- 58
2020-05-22 00:00:00 24.7 7 Sur 13 Sur 0 -- -- 42
2020-05-21 23:00:00 25.7 7 Sudoeste 18 Oeste 0 -- -- 39
2020-05-21 22:00:00 28.3 12 Oeste 16 Oeste 0 -- -- 33
2020-05-21 21:00:00 30.2 10 Oeste 14 Oeste 0 -- -- 31
2020-05-21 20:00:00 32.7 6 Noroeste 16 Oeste 0 -- -- 27
2020-05-21 19:00:00 33.1 10 Oeste 26 Oeste 0 -- -- 27
2020-05-21 18:00:00 33.7 9 Oeste 25 Oeste 0 -- -- 26
2020-05-21 17:00:00 34.4 9 Noroeste 27 Oeste 0 -- -- 23
2020-05-21 16:00:00 33.5 13 Oeste 30 Noroeste 0 -- -- 24
2020-05-21 15:00:00 33.5 6 Norte 18 Oeste 0 -- -- 26
2020-05-21 14:00:00 32.2 5 Nordeste 13 Norte 0 -- -- 33
2020-05-21 13:00:00 31.2 4 Nordeste 11 Sudeste 0 -- -- 36
2020-05-21 12:00:00 28.5 5 Este 12 Este 0 -- -- 41
2020-05-21 11:00:00 26.4 6 Este 13 Este 0 -- -- 46
2020-05-21 10:00:00 24 4 Norte 7 Norte 0 -- -- 55
2020-05-21 09:00:00 21.9 2 Nordeste 6 Nordeste 0 -- -- 62
2020-05-21 08:00:00 18.7 3 Nordeste 9 Nordeste 0 -- -- 69
2020-05-21 07:00:00 17.1 6 Norte 9 Norte 0 -- -- 74
2020-05-21 06:00:00 17.7 0 Calma 5 Sudoeste 0 -- -- 72
2020-05-21 05:00:00 19 3 Sur 6 Sur 0 -- -- 67
2020-05-21 04:00:00 19.6 3 Noroeste 11 Sur 0 -- -- 64
2020-05-21 03:00:00 21 6 Sudoeste 13 Sur 0 -- -- 57
2020-05-21 02:00:00 22.1 8 Sur 17 Sudoeste 0 -- -- 52
2020-05-21 01:00:00 23.2 6 Sur 13 Sudoeste 0 -- -- 46
2020-05-21 00:00:00 23.7 4 Sur 9 Sur 0 -- -- 47
2020-05-20 23:00:00 25.1 5 Sudoeste 14 Oeste 0 -- -- 44
2020-05-20 22:00:00 26.3 10 Oeste 14 Oeste 0 -- -- 40
2020-05-20 21:00:00 29.7 11 Oeste 16 Oeste 0 -- -- 31
2020-05-20 20:00:00 32.3 7 Sudoeste 18 Oeste 0 -- -- 25
2020-05-20 19:00:00 32.7 6 Oeste 23 Oeste 0 -- -- 24
2020-05-20 18:00:00 33 8 Noroeste 22 Oeste 0 -- -- 24
2020-05-20 17:00:00 33.5 5 Noroeste 18 Norte 0 -- -- 22
2020-05-20 16:00:00 32.2 9 Noroeste 21 Oeste 0 -- -- 25
2020-05-20 15:00:00 31.9 5 Este 17 Norte 0 -- -- 28
2020-05-20 14:00:00 30.8 7 Norte 14 Norte 0 -- -- 31
2020-05-20 13:00:00 29 7 Oeste 15 Oeste 0 -- -- 39
2020-05-20 12:00:00 27.8 4 Norte 15 Este 0 -- -- 41
2020-05-20 11:00:00 25.9 3 Nordeste 10 Norte 0 -- -- 44
2020-05-20 10:00:00 23.2 5 Norte 10 Norte 0 -- -- 54
2020-05-20 09:00:00 19.8 4 Nordeste 8 Norte 0 -- -- 67
2020-05-20 08:00:00 17.5 7 Nordeste 9 Nordeste 0 -- -- 70
2020-05-20 07:00:00 16.3 5 Nordeste 9 Norte 0 -- -- 73
2020-05-20 06:00:00 17.1 5 Norte 9 Norte 0 -- -- 70
2020-05-20 05:00:00 18.1 0 Calma 10 Sur 0 -- -- 66
2020-05-20 04:00:00 19.8 8 Sur 10 Sur 0 -- -- 60
2020-05-20 03:00:00 19.7 5 Sur 9 Sur 0 -- -- 59
2020-05-20 02:00:00 20 6 Sur 13 Sudoeste 0 -- -- 56
2020-05-20 01:00:00 21.3 3 Sudoeste 10 Norte 0 -- -- 48
2020-05-20 00:00:00 22.5 0 Calma 5 Nordeste 0 -- -- 46
2020-05-19 23:00:00 23.7 0 Calma 5 Sudoeste 0 -- -- 40
2020-05-19 22:00:00 25.8 3 Este 5 Sudeste 0 -- -- 38
2020-05-19 21:00:00 29.1 0 Calma 6 Oeste 0 -- -- 36
2020-05-19 20:00:00 31.5 4 Sudeste 13 Noroeste 0 -- -- 23
2020-05-19 19:00:00 31.6 5 Noroeste 17 Norte 0 -- -- 25
2020-05-19 18:00:00 32 5 Noroeste 19 Noroeste 0 -- -- 26
2020-05-19 17:00:00 31.6 6 Noroeste 20 Oeste 0 -- -- 24
2020-05-19 16:00:00 30.4 8 Norte 21 Norte 0 -- -- 29
2020-05-19 15:00:00 30.1 5 Noroeste 15 Oeste 0 -- -- 28
2020-05-19 14:00:00 29.8 4 Oeste 13 Oeste 0 -- -- 32
2020-05-19 13:00:00 28.3 5 Este 12 Noroeste 0 -- -- 40
2020-05-19 12:00:00 26.8 4 Norte 10 Norte 0 -- -- 45
2020-05-19 11:00:00 23.9 4 Norte 9 Noroeste 0 -- -- 53
2020-05-19 10:00:00 21.2 5 Norte 10 Norte 0 -- -- 60
2020-05-19 09:00:00 19 4 Nordeste 9 Nordeste 0 -- -- 68
2020-05-19 08:00:00 15.7 4 Nordeste 8 Nordeste 0 -- -- 75
2020-05-19 07:00:00 14.8 4 Norte 6 Norte 0 -- -- 77
2020-05-19 06:00:00 15.6 0 Calma 6 Sudoeste 0 -- -- 72
2020-05-19 05:00:00 16 5 Sudoeste 9 Sudoeste 0 -- -- 69
2020-05-19 04:00:00 16.8 4 Sudoeste 5 Sudoeste 0 -- -- 64
2020-05-19 03:00:00 17.4 2 Sudoeste 4 Sudoeste 0 -- -- 62
2020-05-19 02:00:00 18.3 0 Calma 4 Sur 0 -- -- 63
2020-05-19 01:00:00 18.7 3 Sudeste 4 Sur 0 -- -- 60
2020-05-19 00:00:00 20.4 3 Sudoeste 6 Sudoeste 0 -- -- 51
2020-05-18 23:00:00 21.9 4 Sudoeste 5 Sudoeste 0 -- -- 48
2020-05-18 22:00:00 23.8 4 Sudoeste 7 Sudoeste 0 -- -- 44
2020-05-18 21:00:00 26.6 4 Sudoeste 8 Sudeste 0 -- -- 36
2020-05-18 20:00:00 28.6 3 Sur 13 Sudoeste 0 -- -- 31
2020-05-18 19:00:00 28.4 5 Oeste 10 Noroeste 0 -- -- 30
2020-05-18 18:00:00 28.5 4 Norte 17 Noroeste 0 -- -- 30
2020-05-18 17:00:00 27.9 6 Oeste 16 Noroeste 0 -- -- 29
2020-05-18 16:00:00 27.7 8 Oeste 18 Oeste 0 -- -- 31
2020-05-18 15:00:00 27.2 5 Noroeste 15 Oeste 0 -- -- 37
2020-05-18 14:00:00 26.3 6 Norte 17 Noroeste 0 -- -- 36
2020-05-18 13:00:00 24.1 6 Norte 14 Norte 0 -- -- 51
2020-05-18 12:00:00 -- -- -- -- -- -- -- -- --
2020-05-18 11:00:00 20.5 6 Este 14 Este 0 -- -- 64
2020-05-18 10:00:00 18.7 3 Norte 7 Norte 0 -- -- 71
2020-05-18 09:00:00 15.7 4 Norte 6 Norte 0 -- -- 84
2020-05-18 08:00:00 13 4 Norte 10 Norte 0 -- -- 92
2020-05-18 07:00:00 12.2 8 Norte 9 Nordeste 0 -- -- 91
2020-05-18 06:00:00 12.9 0 Calma 2 Sudoeste 0 -- -- 90
2020-05-18 05:00:00 13.1 0 Calma 3 Sudoeste 0 -- -- 88
2020-05-18 04:00:00 13.8 0 Calma 3 Este 0 -- -- 86
2020-05-18 03:00:00 14.2 3 Este 4 Sur 0 -- -- 84
2020-05-18 02:00:00 14.9 0 Calma 10 Sudoeste 0 -- -- 81
2020-05-18 01:00:00 15.8 5 Sudoeste 10 Sudoeste 0 -- -- 77
2020-05-18 00:00:00 16.6 6 Sudoeste 14 Sudoeste 0 -- -- 73
2020-05-17 23:00:00 17.6 9 Sudoeste 13 Sudoeste 0 -- -- 71
2020-05-17 22:00:00 19 9 Sur 18 Sur 0 -- -- 67
2020-05-17 21:00:00 22.1 3 Sudoeste 8 Sudoeste 0 -- -- 52
2020-05-17 20:00:00 22.7 5 Norte 9 Noroeste 0 -- -- 52
2020-05-17 19:00:00 22.8 6 Oeste 24 Oeste 0 -- -- 49
2020-05-17 18:00:00 22.8 13 Noroeste 27 Noroeste 0 -- -- 51
2020-05-17 17:00:00 25 8 Norte 16 Norte 0 -- -- 39
2020-05-17 16:00:00 24.5 5 Norte 17 Noroeste 0 -- -- 43
2020-05-17 15:00:00 25 5 Nordeste 13 Norte 0 -- -- 44
2020-05-17 14:00:00 22.8 6 Nordeste 13 Norte 0 -- -- 56
2020-05-17 13:00:00 21.5 7 Norte 15 Norte 0 -- -- 59
2020-05-17 12:00:00 19.9 6 Norte 20 Norte 0 -- -- 66
2020-05-17 11:00:00 19 5 Norte 14 Norte 0 -- -- 71
2020-05-17 10:00:00 18.4 3 Nordeste 7 Este 0 -- -- 75
2020-05-17 09:00:00 15.4 2 Nordeste 4 Sudeste 0 -- -- 92
2020-05-17 08:00:00 14.1 3 Sudeste 4 Sudeste 0 -- -- 93
2020-05-17 07:00:00 13.7 0 Calma 5 Sudeste 0 -- -- 95
2020-05-17 06:00:00 13.3 0 Calma 6 Este 0 -- -- 95
2020-05-17 05:00:00 13 5 Nordeste 9 Norte 0 -- -- 96
2020-05-17 04:00:00 13 3 Sur 6 Oeste 0 -- -- 94
2020-05-17 03:00:00 13.7 2 Sur 9 Sur 0 -- -- 94
2020-05-17 02:00:00 14.1 2 Sudoeste 14 Sur 0 -- -- 93
2020-05-17 01:00:00 14.9 8 Sur 12 Sur 0.2 -- -- 91
2020-05-17 00:00:00 15.9 9 Sudoeste 15 Sudoeste 0.6 -- -- 85
2020-05-16 23:00:00 16.2 4 Norte 13 Sudoeste 0 -- -- 75
2020-05-16 22:00:00 16.3 6 Sudoeste 22 Sudoeste 0 -- -- 75
2020-05-16 21:00:00 17.7 11 Sudoeste 31 Sudoeste 0 -- -- 67
2020-05-16 20:00:00 21.7 20 Sudoeste 32 Sudoeste 0 -- -- 52
2020-05-16 19:00:00 21.9 9 Sudoeste 19 Sudoeste 0 -- -- 51
2020-05-16 18:00:00 22.4 14 Sur 20 Sur 0 -- -- 50
2020-05-16 17:00:00 22.9 5 Sudoeste 20 Norte 0 -- -- 46
2020-05-16 16:00:00 21.3 13 Noroeste 28 Noroeste 0 -- -- 52
2020-05-16 15:00:00 23.7 8 Norte 18 Norte 0 -- -- 39
2020-05-16 14:00:00 22.4 7 Norte 18 Nordeste 0 -- -- 50
2020-05-16 13:00:00 22 6 Nordeste 14 Noroeste 0 -- -- 57
2020-05-16 12:00:00 20.3 3 Este 9 Sudoeste 0 -- -- 64
2020-05-16 11:00:00 16.9 3 Noroeste 8 Oeste 0 -- -- 75
2020-05-16 10:00:00 15.3 3 Este 5 Nordeste 0 -- -- 82
2020-05-16 09:00:00 13.3 3 Este 5 Este 0 -- -- 90
2020-05-16 08:00:00 11.7 3 Nordeste 8 Norte 0 -- -- 94
2020-05-16 07:00:00 11.4 4 Norte 6 Norte 0 -- -- 93
2020-05-16 06:00:00 11.7 0 Calma 4 Sudoeste 0 -- -- 92
2020-05-16 05:00:00 12 0 Calma 6 Sudeste 0 -- -- 91
2020-05-16 04:00:00 12.1 4 Sudeste 7 Sur 0 -- -- 90
2020-05-16 03:00:00 12.8 5 Sudoeste 8 Sudoeste 0 -- -- 87
2020-05-16 02:00:00 12.7 2 Sudoeste 10 Sur 0 -- -- 88
2020-05-16 01:00:00 13.2 7 Sudoeste 12 Sur 0 -- -- 84
2020-05-16 00:00:00 14 7 Sudoeste 11 Sudoeste 0 -- -- 82
2020-05-15 23:00:00 14.5 6 Sur 15 Sudoeste 0 -- -- 77
2020-05-15 22:00:00 15.9 8 Sudoeste 18 Sur 0 -- -- 69
2020-05-15 21:00:00 18.8 8 Sudoeste 17 Oeste 0 -- -- 56
2020-05-15 20:00:00 22 10 Oeste 23 Oeste 0 -- -- 45
2020-05-15 19:00:00 23.2 4 Norte 18 Norte 0 -- -- 37
2020-05-15 18:00:00 21.1 11 Norte 21 Norte 0 -- -- 41
2020-05-15 17:00:00 20.1 12 Norte 27 Norte 0 -- -- 47
2020-05-15 16:00:00 19.8 15 Norte 33 Norte 0 -- -- 54
2020-05-15 15:00:00 18.1 20 Norte 39 Norte 0 -- -- 57
2020-05-15 14:00:00 19.6 14 Nordeste 24 Nordeste 0 -- -- 54
2020-05-15 13:00:00 19.9 6 Nordeste 18 Nordeste 0 -- -- 56
2020-05-15 12:00:00 18.2 8 Nordeste 15 Nordeste 0 -- -- 63
2020-05-15 11:00:00 16.6 9 Nordeste 17 Este 0 -- -- 73
2020-05-15 10:00:00 14.6 8 Nordeste 15 Norte 0 -- -- 83
2020-05-15 09:00:00 11.8 6 Norte 12 Norte 0 -- -- 92
2020-05-15 08:00:00 9.8 3 Noroeste 8 Este 0 -- -- 96
2020-05-15 07:00:00 9.7 5 Nordeste 11 Este 0 -- -- 96
2020-05-15 06:00:00 10 6 Nordeste 13 Nordeste 0 -- -- 96
2020-05-15 05:00:00 9.8 2 Nordeste 14 Nordeste 0 -- -- 94
2020-05-15 04:00:00 10.1 9 Nordeste 12 Nordeste 0 -- -- 94
2020-05-15 03:00:00 10.4 6 Este 12 Nordeste 0 -- -- 94
2020-05-15 02:00:00 10.7 6 Nordeste 10 Nordeste 0 -- -- 93
2020-05-15 01:00:00 11.3 6 Este 8 Este 0 -- -- 92
2020-05-15 00:00:00 12.1 6 Nordeste 8 Nordeste 0 -- -- 91
2020-05-14 23:00:00 12.6 5 Sudeste 11 Sudeste 0.6 -- -- 93
2020-05-14 22:00:00 12.8 6 Sur 19 Sur 3.4 -- -- 93
2020-05-14 21:00:00 14.1 15 Sur 31 Sudoeste 0.4 -- -- 85
2020-05-14 20:00:00 16.2 2 Sur 28 Sudoeste 1 -- -- 76
2020-05-14 19:00:00 14.3 16 Sudoeste 45 Sudoeste 0.4 -- -- 78
2020-05-14 18:00:00 18.8 19 Sudoeste 36 Sudoeste 0 -- -- 49
2020-05-14 17:00:00 19.4 16 Sur 40 Sur 0 -- -- 51
2020-05-14 16:00:00 19.2 18 Sudoeste 35 Sudoeste 0 -- -- 50
2020-05-14 15:00:00 19.1 23 Sudoeste 42 Sudoeste 0 -- -- 48
2020-05-14 14:00:00 18.8 18 Sudoeste 43 Sudoeste 0 -- -- 51
2020-05-14 13:00:00 17.2 22 Sudoeste 42 Sudoeste 0 -- -- 54
2020-05-14 12:00:00 16.4 20 Sudoeste 34 Sudoeste 0 -- -- 57
2020-05-14 11:00:00 15.9 19 Sudoeste 30 Sudoeste 0 -- -- 62
2020-05-14 10:00:00 15 10 Sudoeste 21 Sudoeste 0 -- -- 66
2020-05-14 09:00:00 13.1 4 Sur 9 Sur 0 -- -- 76
2020-05-14 08:00:00 10.5 2 Sudeste 5 Sur 0 -- -- 89
2020-05-14 07:00:00 10.4 3 Este 5 Este 0 -- -- 90
2020-05-14 06:00:00 10.7 0 Calma 6 Sudoeste 0 -- -- 91
2020-05-14 05:00:00 11.2 3 Sur 6 Sur 0 -- -- 89
2020-05-14 04:00:00 11.7 4 Sudoeste 19 Sur 0 -- -- 88
2020-05-14 03:00:00 11.8 4 Sur 21 Sudoeste 0 -- -- 88
2020-05-14 02:00:00 12.1 11 Sudoeste 24 Sudoeste 0 -- -- 86
2020-05-14 01:00:00 12.4 12 Sudoeste 29 Sur 0 -- -- 85
2020-05-14 00:00:00 12.5 9 Sudoeste 23 Sudoeste 0 -- -- 86
2020-05-13 23:00:00 12.6 12 Sudoeste 25 Sudoeste 0 -- -- 85
2020-05-13 22:00:00 13.4 14 Sudoeste 54 Sudoeste 0 -- -- 81
2020-05-13 21:00:00 15.9 28 Sudoeste 49 Oeste 0 -- -- 76
2020-05-13 20:00:00 19.8 5 Norte 12 Noroeste 0 -- -- 52
2020-05-13 19:00:00 20.8 2 Oeste 13 Oeste 0 -- -- 47
2020-05-13 18:00:00 21.2 8 Oeste 17 Sudoeste 0 -- -- 42
2020-05-13 17:00:00 21.6 6 Sur 22 Sudoeste 0 -- -- 40
2020-05-13 16:00:00 21.2 11 Sudoeste 19 Sudoeste 0 -- -- 41
2020-05-13 15:00:00 21 9 Sur 23 Este 0 -- -- 45
2020-05-13 14:00:00 19.3 9 Sudoeste 18 Sudoeste 0 -- -- 51
2020-05-13 13:00:00 19 7 Sur 17 Sudoeste 0 -- -- 56
2020-05-13 12:00:00 16.5 6 Sudoeste 20 Sudoeste 0 -- -- 65
2020-05-13 11:00:00 16.7 7 Sur 18 Sudeste 0 -- -- 69
2020-05-13 10:00:00 15.1 8 Sudoeste 19 Sur 0 -- -- 75
2020-05-13 09:00:00 13.8 8 Sur 14 Sur 0 -- -- 83
2020-05-13 08:00:00 12.2 5 Sur 9 Sudeste 0 -- -- 91
2020-05-13 07:00:00 12.1 5 Sudoeste 9 Sudoeste 0 -- -- 91
2020-05-13 06:00:00 12.2 6 Sur 13 Sur 0 -- -- 89
2020-05-13 05:00:00 12.1 7 Sur 14 Sur 0 -- -- 90
2020-05-13 04:00:00 11.8 5 Sur 12 Sur 0 -- -- 90
2020-05-13 03:00:00 12.2 3 Sudeste 13 Sudoeste 0 -- -- 89
2020-05-13 02:00:00 12.8 8 Sur 17 Sudoeste 0 -- -- 87
2020-05-13 01:00:00 12.9 10 Sur 15 Sur 0 -- -- 87
2020-05-13 00:00:00 12.8 7 Sur 13 Sur 0 -- -- 86
2020-05-12 23:00:00 12.9 4 Sur 8 Sur 0 -- -- 84
2020-05-12 22:00:00 13.4 3 Sudeste 7 Sudoeste 0 -- -- 87
2020-05-12 21:00:00 14.4 5 Sudoeste 19 Sudoeste 0 -- -- 83
2020-05-12 20:00:00 14.6 15 Oeste 33 Oeste 0 -- -- 78
2020-05-12 19:00:00 15.6 21 Oeste 37 Sudoeste 0 -- -- 75
2020-05-12 18:00:00 16.5 15 Sudoeste 24 Sur 0 -- -- 73
2020-05-12 17:00:00 17.2 9 Oeste 18 Oeste 0 -- -- 63
2020-05-12 16:00:00 17.3 3 Sur 19 Oeste 0 -- -- 68
2020-05-12 15:00:00 15.6 9 Sudoeste 17 Sudoeste 0 -- -- 71
2020-05-12 14:00:00 13.2 6 Este 23 Este 0 -- -- 84
2020-05-12 13:00:00 11.9 14 Este 33 Este 0.4 -- -- 89
2020-05-12 12:00:00 12.4 19 Sudeste 33 Este 2 -- -- 87
2020-05-12 11:00:00 12.3 17 Sudeste 32 Sur 1.8 -- -- 91
2020-05-12 10:00:00 12.7 15 Sudeste 26 Sudeste 0.6 -- -- 88
2020-05-12 09:00:00 13.4 5 Sur 18 Sudoeste 0 -- -- 87
2020-05-12 08:00:00 13.2 4 Este 14 Nordeste 0 -- -- 89
2020-05-12 07:00:00 13.1 6 Nordeste 13 Este 0 -- -- 90
2020-05-12 06:00:00 13 8 Nordeste 14 Este 0 -- -- 90
2020-05-12 05:00:00 12.9 2 Norte 8 Sudeste 0 -- -- 90
2020-05-12 04:00:00 12.8 5 Sudeste 11 Sudeste 0 -- -- 89
2020-05-12 03:00:00 12.9 4 Norte 7 Noroeste 0 -- -- 87
2020-05-12 02:00:00 13.6 4 Este 8 Nordeste 0 -- -- 83
2020-05-12 01:00:00 14 3 Sudeste 12 Nordeste 0 -- -- 80
2020-05-12 00:00:00 15 4 Sudoeste 16 Sudoeste 0 -- -- 76
2020-05-11 23:00:00 16 10 Sudoeste 15 Sudoeste 0 -- -- 71
2020-05-11 22:00:00 16.9 9 Sudoeste 18 Sudoeste 0 -- -- 67
2020-05-11 21:00:00 18 9 Sudoeste 31 Sudoeste 0 -- -- 62
2020-05-11 20:00:00 19.2 20 Sudoeste 43 Sudoeste 0 -- -- 59
2020-05-11 19:00:00 20.3 23 Sudoeste 49 Sudoeste 0 -- -- 55
2020-05-11 18:00:00 20.7 26 Sudoeste 48 Sudoeste 0 -- -- 55
2020-05-11 17:00:00 21 27 Sudoeste 46 Oeste 0 -- -- 60
2020-05-11 16:00:00 20 24 Sudoeste 36 Oeste 0 -- -- 72
2020-05-11 15:00:00 19 23 Sudoeste 37 Sudoeste 0 -- -- 74
2020-05-11 14:00:00 14.8 15 Sudoeste 36 Oeste 0.4 -- -- 92
2020-05-11 13:00:00 13.8 27 Oeste 52 Oeste 0.2 -- -- 92
2020-05-11 12:00:00 17.9 16 Sudoeste 32 Sur 0 -- -- 71
2020-05-11 11:00:00 17.4 19 Sudoeste 33 Sur 0 -- -- 74
2020-05-11 10:00:00 16.5 17 Sur 30 Sudoeste 0 -- -- 76
2020-05-11 09:00:00 15.3 13 Sur 19 Sur 0 -- -- 85
2020-05-11 08:00:00 13.6 9 Sur 17 Sur 0 -- -- 92
2020-05-11 07:00:00 13.2 7 Sur 20 Sudoeste 0 -- -- 93
2020-05-11 06:00:00 13.5 8 Sur 17 Sur 0 -- -- 92
2020-05-11 05:00:00 13.4 9 Sudoeste 23 Sur 0 -- -- 93
2020-05-11 04:00:00 13.6 13 Sudoeste 26 Sur 0 -- -- 93
2020-05-11 03:00:00 13.8 14 Sudoeste 27 Sudoeste 0 -- -- 91
2020-05-11 02:00:00 14 12 Sur 20 Sur 0 -- -- 90
2020-05-11 01:00:00 13.8 10 Sur 23 Sur 0 -- -- 92
2020-05-11 00:00:00 14 14 Sudoeste 31 Sudoeste 0 -- -- 91
2020-05-10 23:00:00 14.3 15 Sudoeste 27 Sudoeste 0 -- -- 87
2020-05-10 22:00:00 14.3 17 Sur 40 Sudoeste 0.4 -- -- 92
2020-05-10 21:00:00 16 22 Sudoeste 44 Sudoeste 0 -- -- 82
2020-05-10 20:00:00 17 16 Sudoeste 36 Sudoeste 0 -- -- 83
2020-05-10 19:00:00 16.3 10 Sudoeste 55 Sudoeste 3.6 -- -- 89
2020-05-10 18:00:00 19.9 18 Sudoeste 36 Oeste 0 -- -- 58
2020-05-10 17:00:00 17.9 9 Noroeste 28 Sudoeste 0 -- -- 72
2020-05-10 16:00:00 17.8 15 Sudoeste 40 Sudoeste 0 -- -- 66
2020-05-10 15:00:00 17.6 21 Sudoeste 37 Sur 0 -- -- 70
2020-05-10 14:00:00 16.7 15 Sudoeste 35 Sudoeste 0 -- -- 77
2020-05-10 13:00:00 15 21 Sur 40 Sudoeste 0 -- -- 79
2020-05-10 12:00:00 16.3 18 Sudoeste 29 Sudoeste 0 -- -- 77
2020-05-10 11:00:00 14.6 15 Sudoeste 29 Sudoeste 0 -- -- 87
2020-05-10 10:00:00 14.2 12 Sudoeste 24 Sudoeste 0 -- -- 91
2020-05-10 09:00:00 13.6 6 Sudoeste 13 Sudoeste 0 -- -- 95
2020-05-10 08:00:00 12.4 4 Sudoeste 14 Sudoeste 0 -- -- 95
2020-05-10 07:00:00 12.7 7 Sur 12 Sudoeste 0.4 -- -- 95
2020-05-10 06:00:00 12.5 6 Sudoeste 15 Sur 0 -- -- 93
2020-05-10 05:00:00 12.3 9 Sudoeste 16 Sudoeste 0.4 -- -- 92
2020-05-10 04:00:00 13.3 11 Sudoeste 26 Oeste 2.6 -- -- 91
2020-05-10 03:00:00 14.3 12 Sudoeste 32 Sudoeste 0 -- -- 91
2020-05-10 02:00:00 14.5 18 Sudoeste 30 Sudoeste 0 -- -- 88
2020-05-10 01:00:00 14.8 14 Sudoeste 36 Sudoeste 0 -- -- 88
2020-05-10 00:00:00 15.1 12 Sudoeste 20 Sudoeste 0 -- -- 91
2020-05-09 23:00:00 15 8 Sudoeste 31 Sudoeste 0.6 -- -- 90
2020-05-09 22:00:00 17.4 21 Oeste 37 Oeste 0 -- -- 66
2020-05-09 21:00:00 19.1 30 Oeste 41 Sudoeste 0 -- -- 57
2020-05-09 20:00:00 20.7 23 Sudoeste 42 Oeste 0 -- -- 49
2020-05-09 19:00:00 22.2 23 Sudoeste 37 Sudoeste 0 -- -- 43
2020-05-09 18:00:00 22.4 20 Sudoeste 40 Oeste 0 -- -- 43
2020-05-09 17:00:00 22 15 Sudoeste 38 Sudoeste 0 -- -- 45
2020-05-09 16:00:00 21.4 20 Sudoeste 34 Sudoeste 0 -- -- 48
2020-05-09 15:00:00 21.5 17 Sudoeste 32 Sudoeste 0 -- -- 48
2020-05-09 14:00:00 20.9 14 Sudoeste 28 Sudoeste 0 -- -- 48
2020-05-09 13:00:00 19.5 16 Sudoeste 26 Sudoeste 0 -- -- 55
2020-05-09 12:00:00 19.1 14 Sudoeste 27 Sur 0 -- -- 59
2020-05-09 11:00:00 17.7 13 Sudoeste 24 Oeste 0 -- -- 65
2020-05-09 10:00:00 16.2 17 Sudoeste 24 Oeste 0 -- -- 75
2020-05-09 09:00:00 15.8 6 Sudoeste 10 Sudoeste 0 -- -- 82
2020-05-09 08:00:00 15.6 0 Calma 10 Oeste 0 -- -- 82
2020-05-09 07:00:00 15.4 7 Oeste 12 Sudoeste 0 -- -- 82
2020-05-09 06:00:00 15.7 5 Sudoeste 10 Sudoeste 0 -- -- 81
2020-05-09 05:00:00 15.6 5 Sudoeste 20 Sudoeste 0 -- -- 80
2020-05-09 04:00:00 15.9 13 Sudoeste 31 Oeste 0 -- -- 78
2020-05-09 03:00:00 16.5 19 Sudoeste 33 Sudoeste 0 -- -- 74
2020-05-09 02:00:00 16.9 4 Sudoeste 26 Sudoeste 0 -- -- 74
2020-05-09 01:00:00 17.6 19 Sudoeste 30 Sudoeste 0 -- -- 70
2020-05-09 00:00:00 18.6 11 Sudoeste 29 Sudoeste 0 -- -- 69
2020-05-08 23:00:00 20 15 Sudoeste 31 Sudoeste 0 -- -- 66
2020-05-08 22:00:00 21.8 17 Sudoeste 31 Sudoeste 0 -- -- 63
2020-05-08 21:00:00 23.4 22 Oeste 36 Oeste 0 -- -- 58
2020-05-08 20:00:00 25.4 23 Oeste 40 Oeste 0 -- -- 50
2020-05-08 19:00:00 27.4 22 Oeste 42 Oeste 0 -- -- 39
2020-05-08 18:00:00 27.9 24 Oeste 39 Oeste 0 -- -- 37
2020-05-08 17:00:00 29.1 13 Sudoeste 34 Sudoeste 0 -- -- 33
2020-05-08 16:00:00 28.6 12 Sudoeste 27 Sudoeste 0 -- -- 32
2020-05-08 15:00:00 27.3 11 Oeste 24 Sudoeste 0 -- -- 37
2020-05-08 14:00:00 26.5 9 Sudoeste 21 Sudoeste 0 -- -- 37
2020-05-08 13:00:00 25.1 6 Noroeste 14 Oeste 0 -- -- 43
2020-05-08 12:00:00 23.9 4 Oeste 11 Oeste 0 -- -- 45
2020-05-08 11:00:00 22 4 Noroeste 9 Oeste 0 -- -- 51
2020-05-08 10:00:00 20.4 0 Calma 5 Sudeste 0 -- -- 54
2020-05-08 09:00:00 16.7 3 Sudeste 6 Sudoeste 0 -- -- 69
2020-05-08 08:00:00 13.5 3 Sudoeste 5 Sudoeste 0 -- -- 77
2020-05-08 07:00:00 13.9 2 Sudoeste 10 Norte 0 -- -- 76
2020-05-08 06:00:00 14.5 8 Norte 12 Norte 0 -- -- 73
2020-05-08 05:00:00 16 0 Calma 7 Noroeste 0 -- -- 66
2020-05-08 04:00:00 16.3 3 Nordeste 8 Nordeste 0 -- -- 66
2020-05-08 03:00:00 17.3 4 Norte 8 Norte 0 -- -- 62
2020-05-08 02:00:00 18.2 0 Calma 10 Oeste 0 -- -- 60
2020-05-08 01:00:00 19.2 2 Oeste 12 Oeste 0 -- -- 56
2020-05-08 00:00:00 19.7 5 Noroeste 13 Sudoeste 0 -- -- 56
2020-05-07 23:00:00 21.4 5 Sudoeste 10 Sudoeste 0 -- -- 53
2020-05-07 22:00:00 23.2 3 Sudoeste 14 Sudoeste 0 -- -- 53
2020-05-07 21:00:00 25.6 10 Sudoeste 22 Oeste 0 -- -- 47
2020-05-07 20:00:00 27.9 13 Sudoeste 22 Sudoeste 0 -- -- 40
2020-05-07 19:00:00 27.8 15 Sudoeste 26 Oeste 0 -- -- 41
2020-05-07 18:00:00 29.2 14 Oeste 26 Oeste 0 -- -- 34
2020-05-07 17:00:00 28.8 13 Oeste 24 Oeste 0 -- -- 37
2020-05-07 16:00:00 28.1 12 Sudoeste 25 Sudoeste 0 -- -- 39
2020-05-07 15:00:00 26.6 13 Sudoeste 20 Sudoeste 0 -- -- 49
2020-05-07 14:00:00 25.9 6 Noroeste 13 Nordeste 0 -- -- 48
2020-05-07 13:00:00 25 4 Norte 14 Nordeste 0 -- -- 50
2020-05-07 12:00:00 23.9 8 Nordeste 16 Nordeste 0 -- -- 49
2020-05-07 11:00:00 21.4 8 Este 13 Nordeste 0 -- -- 57
2020-05-07 10:00:00 20 7 Nordeste 12 Este 0 -- -- 62
2020-05-07 09:00:00 17.4 3 Este 9 Nordeste 0 -- -- 70
2020-05-07 08:00:00 16.1 6 Este 9 Nordeste 0 -- -- 72
2020-05-07 07:00:00 15.9 6 Nordeste 9 Nordeste 0 -- -- 70
2020-05-07 06:00:00 15.8 2 Nordeste 6 Este 0 -- -- 70
2020-05-07 05:00:00 16.2 0 Calma 7 Sudoeste 0 -- -- 69
2020-05-07 04:00:00 17.3 8 Sudoeste 13 Sudoeste 0 -- -- 66
2020-05-07 03:00:00 18.6 5 Norte 9 Nordeste 0 -- -- 59
2020-05-07 02:00:00 19.3 4 Este 13 Nordeste 0 -- -- 57
2020-05-07 01:00:00 20.1 6 Nordeste 16 Norte 0 -- -- 54
2020-05-07 00:00:00 21 10 Norte 15 Nordeste 0 -- -- 51
2020-05-06 23:00:00 21.5 5 Norte 10 Norte 0 -- -- 47
2020-05-06 22:00:00 22.4 3 Norte 9 Noroeste 0 -- -- 45
2020-05-06 21:00:00 25.9 3 Noroeste 8 Noroeste 0 -- -- 39
2020-05-06 20:00:00 29.1 3 Noroeste 12 Oeste 0 -- -- 29
2020-05-06 19:00:00 29.4 6 Noroeste 18 Oeste 0 -- -- 27
2020-05-06 18:00:00 28.8 6 Noroeste 15 Noroeste 0 -- -- 29
2020-05-06 17:00:00 28.4 8 Norte 20 Noroeste 0 -- -- 31
2020-05-06 16:00:00 27.5 7 Norte 21 Norte 0 -- -- 34
2020-05-06 15:00:00 26.7 7 Norte 18 Noroeste 0 -- -- 38
2020-05-06 14:00:00 26 8 Norte 23 Norte 0 -- -- 41
2020-05-06 13:00:00 24.1 9 Nordeste 20 Nordeste 0 -- -- 45
2020-05-06 12:00:00 22.5 6 Nordeste 12 Norte 0 -- -- 46
2020-05-06 11:00:00 20.5 5 Nordeste 11 Norte 0 -- -- 53
2020-05-06 10:00:00 18.3 0 Calma 8 Sur 0 -- -- 64
2020-05-06 09:00:00 15.6 4 Sur 6 Sur 0 -- -- 78
2020-05-06 08:00:00 14 3 Sur 5 Sur 0 -- -- 83
2020-05-06 07:00:00 13.9 5 Sur 9 Sudoeste 0 -- -- 83
2020-05-06 06:00:00 14.5 8 Sudoeste 13 Sudoeste 0 -- -- 80
2020-05-06 05:00:00 15.1 6 Sudoeste 12 Sudoeste 0 -- -- 78
2020-05-06 04:00:00 15.5 7 Sudoeste 15 Sudoeste 0 -- -- 77
2020-05-06 03:00:00 16.4 8 Sudoeste 14 Sudoeste 0 -- -- 73
2020-05-06 02:00:00 17.4 6 Sudoeste 13 Sudoeste 0 -- -- 63
2020-05-06 01:00:00 18.5 6 Sudoeste 8 Sudoeste 0 -- -- 54
2020-05-06 00:00:00 19.1 7 Oeste 9 Sudoeste 0 -- -- 51
2020-05-05 23:00:00 20.6 5 Sur 11 Sudoeste 0 -- -- 45
2020-05-05 22:00:00 22.1 6 Sudoeste 14 Sudoeste 0 -- -- 41
2020-05-05 21:00:00 24.1 9 Oeste 14 Sudoeste 0 -- -- 41
2020-05-05 20:00:00 26.8 12 Sudoeste 23 Oeste 0 -- -- 28
2020-05-05 19:00:00 27.3 14 Sudoeste 22 Oeste 0 -- -- 31
2020-05-05 18:00:00 27.2 12 Oeste 25 Oeste 0 -- -- 31
2020-05-05 17:00:00 26.7 12 Oeste 22 Oeste 0 -- -- 34
2020-05-05 16:00:00 26.7 8 Sudoeste 19 Oeste 0 -- -- 39
2020-05-05 15:00:00 25.8 12 Oeste 22 Noroeste 0 -- -- 45
2020-05-05 14:00:00 24.3 5 Oeste 13 Oeste 0 -- -- 49
2020-05-05 13:00:00 23.1 5 Sudeste 17 Sudeste 0 -- -- 55
2020-05-05 12:00:00 21.6 5 Nordeste 17 Nordeste 0 -- -- 62
2020-05-05 11:00:00 20.2 9 Este 18 Este 0 -- -- 69
2020-05-05 10:00:00 18.5 8 Este 14 Este 0 -- -- 77
2020-05-05 09:00:00 16.6 3 Sur 8 Sur 0 -- -- 86
2020-05-05 08:00:00 16.2 3 Sur 13 Sudoeste 0 -- -- 87
2020-05-05 07:00:00 16.1 8 Sur 14 Sudoeste 0 -- -- 88
2020-05-05 06:00:00 16.3 8 Sudoeste 19 Sudoeste 0 -- -- 88
2020-05-05 05:00:00 16.5 11 Sudoeste 23 Sudoeste 0 -- -- 87
2020-05-05 04:00:00 16.4 10 Sudoeste 19 Sudoeste 0 -- -- 90
2020-05-05 03:00:00 16.3 8 Sudoeste 15 Sur 0 -- -- 87
2020-05-05 02:00:00 17 5 Sudoeste 20 Sudoeste 0 -- -- 82
2020-05-05 01:00:00 17.8 10 Sudoeste 19 Sudoeste 0 -- -- 78
2020-05-05 00:00:00 18.6 9 Sudoeste 21 Sur 0 -- -- 74